Terminal Aerodrome Forecast
Issued by NWS

Home | Current Version | Previous Version | Text Only | Print | Product List | Glossary On
Versions: 1 2 3 4 5 6 7 8 9 10 11 12 13 14
466
FTUS43 KLSX 201720
TAFUIN
TAF
KUIN 201720Z 2018/2118 24009KT P6SM FEW050
     FM210100 23005KT P6SM FEW250
     FM211600 21007KT P6SM SCT050=

USA.gov is the U.S. government's official web portal to all federal, state and local government web resources and services.